Time;durP1;ratioP1;P1;durP2;ratioP2;P2;SDS_P1;SDS_P2;PMS_P1;PMS_P2;Temp;Humidity;BMP_temperature;BMP_pressure;BME280_temperature;BME280_humidity;BME280_pressure;Samples;Min_cycle;Max_cycle;Signal;HPM_P1;HPM_P2
2024/01/27 00:01:32;;;;;;;24.75;4.28;;;2.90;99.90;;;;;;4910643;29;20052;-83
2024/01/27 00:03:58;;;;;;;32.67;5.15;;;2.80;99.90;;;;;;4898404;29;20060;-83
2024/01/27 00:06:24;;;;;;;21.42;3.83;;;2.60;99.90;;;;;;4915063;29;20044;-83
2024/01/27 00:08:50;;;;;;;20.75;4.10;;;2.60;99.90;;;;;;4911765;29;20043;-83
2024/01/27 00:11:15;;;;;;;27.25;4.50;;;2.80;99.90;;;;;;4913509;29;20040;-82
2024/01/27 00:13:41;;;;;;;18.70;3.70;;;2.50;99.90;;;;;;4915095;29;20413;-81
2024/01/27 00:16:07;;;;;;;21.15;4.63;;;;;;;;;;4915410;29;20040;-82
2024/01/27 00:18:35;;;;;;;29.92;5.28;;;2.80;99.90;;;;;;4914708;29;20056;-82
2024/01/27 00:21:01;;;;;;;24.58;4.20;;;2.70;99.90;;;;;;4901395;29;20107;-83
2024/01/27 00:23:34;;;;;;;25.80;4.63;;;2.80;99.90;;;;;;4898539;29;20052;-84
2024/01/27 00:26:04;;;;;;;20.27;4.05;;;2.70;99.90;;;;;;4882659;29;20044;-84
2024/01/27 00:28:30;;;;;;;31.40;5.50;;;2.70;99.90;;;;;;4914048;29;20110;-83
2024/01/27 00:30:55;;;;;;;28.30;4.85;;;2.70;99.90;;;;;;4915210;29;20515;-83
2024/01/27 00:33:22;;;;;;;23.63;4.13;;;2.70;99.90;;;;;;4897601;29;20490;-84
2024/01/27 00:35:47;;;;;;;24.80;4.53;;;2.70;99.90;;;;;;4896744;29;20056;-84
2024/01/27 00:38:13;;;;;;;24.70;4.25;;;2.70;99.90;;;;;;4898842;29;20507;-83
2024/01/27 00:40:39;;;;;;;32.15;4.57;;;2.80;99.90;;;;;;4898902;29;20578;-84
2024/01/27 00:43:08;;;;;;;24.30;4.68;;;;;;;;;;4900921;29;20072;-84
2024/01/27 00:45:34;;;;;;;19.38;4.10;;;2.70;99.90;;;;;;4887151;29;20058;-84
2024/01/27 00:48:00;;;;;;;18.65;4.28;;;;;;;;;;4887364;29;20345;-83
2024/01/27 00:50:29;;;;;;;17.77;4.63;;;;;;;;;;4918834;29;20086;-84
2024/01/27 00:52:55;;;;;;;21.15;4.55;;;;;;;;;;4916304;29;20127;-84
2024/01/27 00:55:21;;;;;;;23.83;4.53;;;;;;;;;;4900199;29;20055;-83
2024/01/27 00:57:47;;;;;;;20.88;3.80;;;4.10;99.90;;;;;;4900329;29;20040;-84
2024/01/27 01:00:13;;;;;;;21.75;4.20;;;2.70;99.90;;;;;;4916001;29;20180;-83
2024/01/27 01:02:40;;;;;;;24.58;4.60;;;2.60;99.90;;;;;;4917011;29;20495;-84
2024/01/27 01:05:07;;;;;;;19.53;4.60;;;2.50;99.90;;;;;;4899673;29;20044;-84
2024/01/27 01:07:33;;;;;;;25.02;4.45;;;2.60;99.90;;;;;;4883797;29;20422;-83
2024/01/27 01:09:59;;;;;;;16.90;3.95;;;2.60;99.90;;;;;;4913555;29;20475;-83
2024/01/27 01:12:25;;;;;;;17.17;3.97;;;2.40;99.90;;;;;;4913898;29;20140;-83
2024/01/27 01:14:51;;;;;;;20.48;3.65;;;2.50;99.90;;;;;;4916666;29;20048;-83
2024/01/27 01:17:17;;;;;;;23.45;4.05;;;2.50;99.90;;;;;;4912649;29;20520;-83
2024/01/27 01:19:43;;;;;;;14.00;4.18;;;2.50;99.90;;;;;;4899398;29;20051;-82
2024/01/27 01:22:12;;;;;;;17.30;3.58;;;2.10;99.90;;;;;;4913197;29;22121;-84
2024/01/27 01:24:37;;;;;;;21.35;4.75;;;2.40;99.90;;;;;;4908410;29;20546;-84
2024/01/27 01:27:03;;;;;;;23.77;4.38;;;2.70;99.90;;;;;;4911851;29;20094;-84
2024/01/27 01:29:29;;;;;;;25.80;5.22;;;2.60;99.90;;;;;;4908427;29;20040;-84
2024/01/27 01:31:55;;;;;;;17.60;4.50;;;2.60;99.90;;;;;;4913403;29;20135;-84
2024/01/27 01:34:20;;;;;;;27.60;4.32;;;2.50;99.90;;;;;;4920190;29;20502;-84
2024/01/27 01:36:47;;;;;;;17.70;3.97;;;2.30;99.90;;;;;;4894386;29;20053;-83
2024/01/27 01:39:14;;;;;;;19.85;4.40;;;3.00;99.90;;;;;;4913606;29;20472;-83
2024/01/27 01:41:40;;;;;;;23.58;4.70;;;2.50;99.90;;;;;;4895937;29;20043;-84
2024/01/27 01:44:06;;;;;;;19.75;4.40;;;2.50;99.90;;;;;;4911638;29;20055;-85
2024/01/27 01:46:32;;;;;;;18.50;4.70;;;2.30;99.90;;;;;;4897812;29;20048;-82
2024/01/27 01:48:58;;;;;;;23.60;5.18;;;2.80;99.90;;;;;;4896725;29;20044;-82
2024/01/27 01:51:25;;;;;;;16.80;3.85;;;2.40;99.90;;;;;;4914817;29;20473;-82
2024/01/27 01:53:53;;;;;;;28.57;4.67;;;2.50;99.90;;;;;;4914770;29;20072;-81
2024/01/27 01:56:19;;;;;;;29.55;4.68;;;2.40;99.90;;;;;;4915126;29;20336;-82
2024/01/27 01:58:45;;;;;;;23.20;4.63;;;2.60;99.90;;;;;;4918991;29;20047;-81
2024/01/27 02:01:10;;;;;;;19.13;4.13;;;2.30;99.90;;;;;;4917942;29;20056;-81
2024/01/27 02:03:36;;;;;;;17.50;3.47;;;2.40;99.90;;;;;;4916388;29;20123;-81
2024/01/27 02:06:02;;;;;;;20.55;3.78;;;2.70;99.90;;;;;;4917074;29;20073;-81
2024/01/27 02:08:27;;;;;;;14.93;3.95;;;2.30;99.90;;;;;;4919095;29;20088;-81
2024/01/27 02:10:53;;;;;;;16.88;3.88;;;2.40;99.90;;;;;;4920725;29;20036;-81
2024/01/27 02:13:21;;;;;;;19.02;3.80;;;2.30;99.90;;;;;;4916796;29;20383;-81
2024/01/27 02:15:48;;;;;;;20.60;4.25;;;2.20;99.90;;;;;;4917549;29;20562;-82
2024/01/27 02:18:14;;;;;;;18.70;4.57;;;2.40;99.90;;;;;;4906398;29;20054;-83
2024/01/27 02:20:40;;;;;;;23.75;4.50;;;2.20;99.90;;;;;;4907342;29;20470;-83
2024/01/27 02:23:06;;;;;;;19.50;3.97;;;2.30;99.90;;;;;;4920752;29;20055;-83
2024/01/27 02:25:32;;;;;;;27.05;4.85;;;2.50;99.90;;;;;;4902669;29;20147;-83
2024/01/27 02:27:58;;;;;;;23.60;4.93;;;2.30;99.90;;;;;;4923019;29;20044;-82
2024/01/27 02:30:24;;;;;;;24.40;4.18;;;2.30;99.90;;;;;;4903433;29;20066;-83
2024/01/27 02:32:53;;;;;;;22.30;4.75;;;2.20;99.90;;;;;;4918143;29;20040;-83
2024/01/27 02:35:21;;;;;;;20.73;3.67;;;;;;;;;;4915568;29;20040;-83
2024/01/27 02:37:47;;;;;;;19.52;4.20;;;;;;;;;;4925942;29;20109;-83
2024/01/27 02:40:14;;;;;;;22.30;4.40;;;;;;;;;;4921238;29;20072;-83
2024/01/27 02:42:43;;;;;;;22.33;4.10;;;;;;;;;;4923395;29;20059;-82
2024/01/27 02:45:10;;;;;;;21.15;4.43;;;;;;;;;;4888866;29;21059;-82
2024/01/27 02:47:37;;;;;;;18.33;3.78;;;;;;;;;;4889112;29;20048;-82
2024/01/27 02:50:03;;;;;;;22.10;4.30;;;;;;;;;;4920756;29;20052;-82
2024/01/27 02:52:30;;;;;;;16.20;4.55;;;;;;;;;;4921684;29;20514;-83
2024/01/27 02:54:56;;;;;;;23.75;4.20;;;;;;;;;;4929645;29;20442;-83
2024/01/27 02:57:22;;;;;;;19.23;4.30;;;;;;;;;;4918911;29;20055;-83
2024/01/27 02:59:48;;;;;;;23.48;4.07;;;2.30;99.90;;;;;;4922693;29;20063;-83
2024/01/27 03:02:14;;;;;;;18.30;4.18;;;2.60;99.90;;;;;;4922103;29;20063;-83
2024/01/27 03:04:40;;;;;;;25.58;4.38;;;2.20;99.90;;;;;;4905504;29;20048;-83
2024/01/27 03:07:05;;;;;;;25.77;4.03;;;2.80;99.90;;;;;;4888645;29;20047;-83
2024/01/27 03:09:31;;;;;;;24.67;4.72;;;2.20;99.90;;;;;;4923510;29;20040;-83
2024/01/27 03:11:57;;;;;;;20.00;3.75;;;2.30;99.90;;;;;;4921003;29;20458;-83
2024/01/27 03:14:27;;;;;;;14.65;3.95;;;;;;;;;;4906478;29;20103;-83
2024/01/27 03:16:53;;;;;;;18.52;4.55;;;;;;;;;;4907881;29;20040;-84
2024/01/27 03:19:19;;;;;;;19.88;4.05;;;;;;;;;;4923414;29;20063;-84
2024/01/27 03:21:46;;;;;;;21.42;4.78;;;;;;;;;;4928817;29;20487;-83
2024/01/27 03:24:12;;;;;;;19.83;3.78;;;;;;;;;;4908267;29;20060;-83
2024/01/27 03:26:38;;;;;;;26.38;4.13;;;;;;;;;;4913832;29;20094;-83
2024/01/27 03:29:04;;;;;;;24.25;4.65;;;;;;;;;;4910700;29;20043;-83
2024/01/27 03:31:34;;;;;;;21.17;4.60;;;;;;;;;;4907806;29;20050;-82
2024/01/27 03:34:00;;;;;;;22.25;4.13;;;;;;;;;;4908256;29;20052;-83
2024/01/27 03:36:26;;;;;;;25.80;4.18;;;;;;;;;;4890490;29;20072;-82
2024/01/27 03:38:53;;;;;;;17.20;3.70;;;;;;;;;;4911541;29;20443;-82
2024/01/27 03:41:19;;;;;;;24.35;4.60;;;;;;;;;;4892977;29;20051;-83
2024/01/27 03:43:45;;;;;;;18.15;3.58;;;;;;;;;;4911051;29;20135;-83
2024/01/27 03:46:11;;;;;;;24.52;3.85;;;;;;;;;;4908879;29;20043;-83
2024/01/27 03:48:37;;;;;;;18.13;4.20;;;;;;;;;;4927269;29;20064;-83
2024/01/27 03:51:03;;;;;;;21.17;4.03;;;;;;;;;;4911763;29;20144;-83
2024/01/27 03:53:29;;;;;;;23.70;4.95;;;;;;;;;;4911541;29;20040;-84
2024/01/27 03:55:58;;;;;;;22.27;4.03;;;;;;;;;;4889413;29;20127;-83
2024/01/27 03:58:27;;;;;;;18.25;3.97;;;;;;;;;;4918723;29;20079;-83
2024/01/27 04:00:53;;;;;;;23.27;4.63;;;;;;;;;;4925931;29;20503;-83
2024/01/27 04:03:19;;;;;;;20.42;4.32;;;;;;;;;;4923932;29;20134;-83
2024/01/27 04:05:45;;;;;;;17.50;3.70;;;;;;;;;;4893959;29;20079;-84
2024/01/27 04:08:12;;;;;;;25.77;4.35;;;;;;;;;;4903941;29;20056;-84
2024/01/27 04:10:38;;;;;;;22.13;4.00;;;;;;;;;;4927148;29;20150;-84
2024/01/27 04:13:04;;;;;;;21.73;4.15;;;;;;;;;;4891035;29;20814;-84
2024/01/27 04:15:30;;;;;;;23.85;3.90;;;;;;;;;;4917620;29;20063;-84
2024/01/27 04:17:56;;;;;;;20.17;4.30;;;;;;;;;;4901845;29;20230;-84
2024/01/27 04:20:22;;;;;;;21.75;4.10;;;;;;;;;;4900338;29;20052;-83
2024/01/27 04:22:48;;;;;;;21.05;4.38;;;;;;;;;;4884713;29;20127;-83
2024/01/27 04:25:14;;;;;;;22.00;3.88;;;;;;;;;;4916126;29;20050;-83
2024/01/27 04:27:42;;;;;;;23.45;4.28;;;;;;;;;;4899074;29;20070;-84
2024/01/27 04:30:08;;;;;;;19.83;3.97;;;;;;;;;;4911307;29;20051;-84
2024/01/27 04:32:36;;;;;;;23.08;4.47;;;;;;;;;;4915721;29;20139;-83
2024/01/27 04:35:03;;;;;;;20.83;3.80;;;;;;;;;;4881577;29;20051;-82
2024/01/27 04:37:29;;;;;;;19.77;4.03;;;;;;;;;;4915831;29;20123;-82
2024/01/27 04:39:56;;;;;;;15.45;3.75;;;;;;;;;;4920645;29;20072;-82
2024/01/27 04:42:23;;;;;;;19.52;4.20;;;;;;;;;;4918865;29;20044;-83
2024/01/27 04:44:49;;;;;;;24.42;4.47;;;;;;;;;;4918944;29;20044;-83
2024/01/27 04:47:15;;;;;;;20.30;4.53;;;;;;;;;;4892592;29;20403;-83
2024/01/27 04:49:41;;;;;;;18.80;4.22;;;;;;;;;;4920238;29;20044;-84
2024/01/27 04:52:07;;;;;;;23.95;4.30;;;;;;;;;;4919548;29;20036;-84
2024/01/27 04:54:33;;;;;;;25.45;4.15;;;;;;;;;;4881534;29;20084;-84
2024/01/27 04:56:59;;;;;;;21.48;4.55;;;;;;;;;;4886348;29;20067;-84
2024/01/27 04:59:25;;;;;;;22.40;4.00;;;;;;;;;;4903496;29;20182;-84
2024/01/27 05:01:51;;;;;;;21.65;4.47;;;;;;;;;;4860321;29;20072;-84
2024/01/27 05:04:17;;;;;;;22.10;4.80;;;;;;;;;;4888979;29;20076;-83
2024/01/27 05:06:47;;;;;;;20.10;4.47;;;;;;;;;;4901586;29;20063;-83
2024/01/27 05:09:13;;;;;;;23.33;5.20;;;;;;;;;;4904485;29;20124;-83
2024/01/27 05:11:39;;;;;;;20.73;4.35;;;;;;;;;;4902845;29;20041;-83
2024/01/27 05:14:05;;;;;;;19.55;5.28;;;;;;;;;;4896841;29;20133;-83
2024/01/27 05:16:33;;;;;;;24.60;5.53;;;;;;;;;;4900445;29;20431;-83
2024/01/27 05:18:59;;;;;;;17.85;5.22;;;;;;;;;;4893127;29;20049;-83
2024/01/27 05:21:25;;;;;;;18.67;5.57;;;1.70;99.90;;;;;;4896074;29;20056;-83
2024/01/27 05:23:50;;;;;;;28.15;7.43;;;1.90;99.90;;;;;;4882150;29;20096;-82
2024/01/27 05:26:16;;;;;;;19.33;5.90;;;2.20;99.90;;;;;;4898654;29;20041;-82
2024/01/27 05:28:41;;;;;;;24.23;6.10;;;1.70;99.90;;;;;;4892096;29;21230;-82
2024/01/27 05:31:08;;;;;;;24.88;5.97;;;1.70;99.90;;;;;;4883700;29;20088;-83
2024/01/27 05:33:34;;;;;;;21.30;7.75;;;1.70;99.90;;;;;;4901160;29;20100;-82
2024/01/27 05:36:00;;;;;;;26.65;7.50;;;1.60;99.90;;;;;;4902146;29;20092;-81
2024/01/27 05:38:26;;;;;;;21.45;7.20;;;1.70;99.90;;;;;;4886809;29;20226;-81
2024/01/27 05:40:51;;;;;;;32.55;7.72;;;1.70;99.90;;;;;;4904061;29;20059;-82
2024/01/27 05:43:20;;;;;;;28.25;7.80;;;1.70;99.90;;;;;;4906897;29;20051;-83
2024/01/27 05:45:46;;;;;;;16.73;7.25;;;1.50;99.90;;;;;;4868984;29;20501;-81
2024/01/27 05:48:12;;;;;;;24.05;8.52;;;1.60;99.90;;;;;;4900670;29;20092;-85
2024/01/27 05:50:40;;;;;;;24.08;8.32;;;1.50;99.90;;;;;;4885194;29;20048;-84
2024/01/27 05:53:05;;;;;;;26.30;7.63;;;1.40;99.90;;;;;;4903381;29;20044;-84
2024/01/27 05:55:31;;;;;;;27.10;8.38;;;1.60;99.90;;;;;;4887125;29;20058;-84
2024/01/27 05:57:57;;;;;;;22.33;7.85;;;1.50;99.90;;;;;;4901867;29;20044;-84
2024/01/27 06:00:22;;;;;;;30.50;8.38;;;1.40;99.90;;;;;;4907773;29;20079;-83
2024/01/27 06:02:49;;;;;;;24.13;8.07;;;1.40;99.90;;;;;;4921064;29;20044;-83
2024/01/27 06:05:14;;;;;;;27.13;9.10;;;1.40;99.90;;;;;;4921794;29;20048;-83
2024/01/27 06:07:40;;;;;;;27.35;8.57;;;1.40;99.90;;;;;;4919328;29;20087;-82
2024/01/27 06:10:09;;;;;;;22.92;8.45;;;1.40;99.90;;;;;;4919191;29;20044;-82
2024/01/27 06:12:36;;;;;;;25.55;8.48;;;1.40;99.90;;;;;;4906427;29;20051;-82
2024/01/27 06:15:02;;;;;;;22.50;9.05;;;1.40;99.90;;;;;;4904429;29;20435;-82
2024/01/27 06:17:28;;;;;;;22.05;8.32;;;1.30;99.90;;;;;;4922861;29;20044;-82
2024/01/27 06:19:54;;;;;;;25.13;9.20;;;1.30;99.90;;;;;;4917122;29;20046;-84
2024/01/27 06:22:19;;;;;;;30.55;10.50;;;1.30;99.90;;;;;;4915309;29;20047;-83
2024/01/27 06:24:45;;;;;;;34.00;10.90;;;1.40;99.90;;;;;;4900789;29;20083;-84
2024/01/27 06:27:11;;;;;;;27.27;10.25;;;1.40;99.90;;;;;;4921672;29;20036;-83
2024/01/27 06:29:38;;;;;;;24.67;10.40;;;1.40;99.90;;;;;;4916193;29;20143;-84
2024/01/27 06:32:04;;;;;;;23.77;9.20;;;1.30;99.90;;;;;;4923412;29;20054;-84
2024/01/27 06:34:29;;;;;;;29.13;9.93;;;1.40;99.90;;;;;;4895473;29;20049;-84
2024/01/27 06:36:55;;;;;;;24.48;10.45;;;1.50;99.90;;;;;;4896727;29;20443;-84
2024/01/27 06:39:21;;;;;;;28.27;10.25;;;1.50;99.90;;;;;;4914656;29;20107;-83
2024/01/27 06:41:47;;;;;;;30.92;10.40;;;1.40;99.90;;;;;;4892062;29;20045;-84
2024/01/27 06:44:14;;;;;;;34.08;10.52;;;1.40;99.90;;;;;;4915154;29;20063;-83
2024/01/27 06:46:40;;;;;;;30.58;10.68;;;1.50;99.90;;;;;;4916908;29;20047;-84
2024/01/27 06:49:05;;;;;;;24.55;10.57;;;1.50;99.90;;;;;;4916615;29;20037;-83
2024/01/27 06:51:31;;;;;;;31.92;11.40;;;1.50;99.90;;;;;;4898995;29;20297;-83
2024/01/27 06:53:57;;;;;;;26.73;10.35;;;1.40;99.90;;;;;;4916919;29;20076;-83
2024/01/27 06:56:22;;;;;;;28.40;10.43;;;1.50;99.90;;;;;;4915806;29;20084;-85
2024/01/27 06:58:48;;;;;;;23.88;10.02;;;1.50;99.90;;;;;;4898546;29;20059;-85
2024/01/27 07:01:13;;;;;;;34.70;11.40;;;1.50;99.90;;;;;;4916548;29;20056;-85
2024/01/27 07:03:40;;;;;;;30.55;11.30;;;1.40;99.90;;;;;;4912982;29;20042;-85
2024/01/27 07:06:06;;;;;;;29.83;11.23;;;1.50;99.90;;;;;;4881544;29;20040;-83
2024/01/27 07:08:32;;;;;;;28.25;11.75;;;1.50;99.90;;;;;;4898335;29;20052;-83
2024/01/27 07:10:58;;;;;;;32.63;11.45;;;1.40;99.90;;;;;;4911161;29;20059;-83
2024/01/27 07:13:24;;;;;;;31.50;12.30;;;1.50;99.90;;;;;;4912988;29;20044;-83
2024/01/27 07:15:49;;;;;;;28.20;11.15;;;1.40;99.90;;;;;;4898596;29;20036;-82
2024/01/27 07:18:15;;;;;;;34.03;12.52;;;1.50;99.90;;;;;;4915307;29;20040;-82
2024/01/27 07:20:41;;;;;;;30.35;12.82;;;1.40;99.90;;;;;;4914489;29;20080;-84
2024/01/27 07:23:06;;;;;;;28.48;12.15;;;1.40;99.90;;;;;;4912879;29;20112;-83
2024/01/27 07:25:32;;;;;;;34.50;12.38;;;1.40;99.90;;;;;;4898983;29;20058;-84
2024/01/27 07:27:57;;;;;;;26.27;11.80;;;1.60;99.90;;;;;;4915719;29;20123;-84
2024/01/27 07:30:23;;;;;;;35.67;12.85;;;1.40;99.90;;;;;;4917860;29;20131;-85
2024/01/27 07:32:49;;;;;;;28.92;12.75;;;1.50;99.90;;;;;;4899814;29;20056;-84
2024/01/27 07:35:15;;;;;;;32.10;12.73;;;1.50;99.90;;;;;;4900182;29;20067;-84
2024/01/27 07:37:41;;;;;;;25.75;12.10;;;1.40;99.90;;;;;;4883900;29;20482;-83
2024/01/27 07:40:08;;;;;;;32.47;13.32;;;1.40;99.90;;;;;;4898809;29;20040;-80
2024/01/27 07:42:34;;;;;;;34.10;12.43;;;1.60;99.90;;;;;;4911522;29;20170;-79
2024/01/27 07:45:00;;;;;;;29.48;12.85;;;1.50;99.90;;;;;;4908927;29;20127;-78
2024/01/27 07:47:25;;;;;;;29.92;13.70;;;1.50;99.90;;;;;;4912552;29;20491;-80
2024/01/27 07:49:52;;;;;;;35.05;14.07;;;1.60;99.90;;;;;;4919025;29;20040;-81
2024/01/27 07:52:18;;;;;;;28.92;13.82;;;1.70;99.90;;;;;;4881704;29;20099;-81
2024/01/27 07:54:44;;;;;;;34.33;14.18;;;1.80;99.90;;;;;;4921470;29;20043;-79
2024/01/27 07:57:10;;;;;;;31.65;14.35;;;1.70;99.90;;;;;;4912502;29;20489;-80
2024/01/27 07:59:35;;;;;;;45.53;15.05;;;1.70;99.90;;;;;;4910038;29;20111;-81
2024/01/27 08:02:01;;;;;;;37.25;14.25;;;1.70;99.90;;;;;;4906570;29;20503;-81
2024/01/27 08:04:27;;;;;;;34.42;15.13;;;1.70;99.90;;;;;;4893162;29;20383;-82
2024/01/27 08:06:53;;;;;;;33.38;15.65;;;2.00;99.90;;;;;;4904554;29;20491;-80
2024/01/27 08:09:19;;;;;;;27.17;14.18;;;1.70;99.90;;;;;;4903291;29;20135;-77
2024/01/27 08:11:45;;;;;;;30.95;15.57;;;1.90;99.90;;;;;;4886354;29;20052;-78
2024/01/27 08:14:11;;;;;;;32.38;15.15;;;;;;;;;;4887967;29;20056;-79
2024/01/27 08:16:37;;;;;;;29.38;15.25;;;1.80;99.90;;;;;;4889777;29;20051;-79
2024/01/27 08:19:03;;;;;;;32.60;16.65;;;1.80;99.90;;;;;;4909461;29;20372;-79
2024/01/27 08:21:28;;;;;;;38.17;17.00;;;1.90;99.90;;;;;;4912523;29;20040;-79
2024/01/27 08:23:55;;;;;;;39.70;16.58;;;2.20;99.90;;;;;;4879002;29;20293;-79
2024/01/27 08:26:20;;;;;;;33.47;16.70;;;2.00;99.90;;;;;;4911394;29;20226;-79
2024/01/27 08:28:49;;;;;;;33.53;16.02;;;2.10;99.90;;;;;;4911261;29;20111;-79
2024/01/27 08:31:15;;;;;;;27.88;16.35;;;2.10;99.90;;;;;;4891952;29;20075;-79
2024/01/27 08:33:40;;;;;;;37.38;16.17;;;2.20;99.90;;;;;;4876964;29;20491;-79
2024/01/27 08:36:06;;;;;;;35.08;17.27;;;2.20;99.90;;;;;;4907579;29;20040;-79
2024/01/27 08:38:32;;;;;;;42.45;16.95;;;2.20;99.90;;;;;;4908996;29;20084;-79
2024/01/27 08:40:58;;;;;;;30.25;16.45;;;2.30;99.90;;;;;;4891460;29;20511;-79
2024/01/27 08:43:23;;;;;;;32.50;17.45;;;2.30;99.90;;;;;;4888284;29;20051;-79
2024/01/27 08:45:49;;;;;;;35.55;16.77;;;2.50;99.90;;;;;;4886493;29;20051;-79
2024/01/27 08:48:16;;;;;;;32.90;17.23;;;2.50;99.90;;;;;;4906708;29;20066;-79
2024/01/27 08:50:41;;;;;;;34.15;16.42;;;2.40;99.90;;;;;;4905750;29;20594;-78
2024/01/27 08:53:07;;;;;;;34.08;16.23;;;2.50;99.90;;;;;;4905004;29;20048;-80
2024/01/27 08:55:33;;;;;;;34.55;15.82;;;2.60;99.90;;;;;;4886999;29;20044;-79
2024/01/27 08:57:58;;;;;;;31.83;17.17;;;2.60;99.90;;;;;;4900512;29;20054;-79
2024/01/27 09:00:24;;;;;;;26.30;15.63;;;2.60;99.90;;;;;;4893370;29;20082;-79
2024/01/27 09:02:51;;;;;;;28.40;15.07;;;2.80;99.90;;;;;;4874856;29;20049;-79
2024/01/27 09:05:17;;;;;;;35.93;15.20;;;2.90;99.90;;;;;;4888309;29;20091;-79
2024/01/27 09:07:42;;;;;;;30.63;15.38;;;3.00;99.90;;;;;;4899853;29;20076;-79
2024/01/27 09:10:09;;;;;;;33.22;15.95;;;2.80;99.90;;;;;;4900600;29;20048;-79
2024/01/27 09:12:35;;;;;;;26.27;16.35;;;2.90;99.90;;;;;;4896019;29;20062;-79
2024/01/27 09:15:00;;;;;;;35.20;16.15;;;3.20;99.90;;;;;;4883274;29;20044;-79
2024/01/27 09:17:26;;;;;;;30.05;15.93;;;3.30;99.90;;;;;;4867982;29;20043;-79
2024/01/27 09:19:52;;;;;;;29.15;14.10;;;3.30;99.90;;;;;;4899845;29;20548;-79
2024/01/27 09:22:17;;;;;;;30.45;15.38;;;3.40;99.90;;;;;;4903108;29;20048;-79
2024/01/27 09:24:43;;;;;;;25.02;14.43;;;3.50;99.90;;;;;;4887439;29;20518;-79
2024/01/27 09:27:08;;;;;;;27.10;14.13;;;3.50;99.90;;;;;;4872214;29;20146;-79
2024/01/27 09:29:34;;;;;;;28.08;14.32;;;3.70;99.90;;;;;;4900748;29;20052;-79
2024/01/27 09:32:00;;;;;;;30.65;13.35;;;3.70;99.90;;;;;;4904510;29;20047;-79
2024/01/27 09:34:27;;;;;;;26.20;12.98;;;3.80;99.90;;;;;;4874775;29;20155;-79
2024/01/27 09:36:53;;;;;;;24.07;12.67;;;3.80;99.90;;;;;;4881362;29;20533;-76
2024/01/27 09:39:18;;;;;;;29.75;13.93;;;3.90;99.90;;;;;;4894967;29;20105;-78
2024/01/27 09:41:44;;;;;;;26.42;13.15;;;4.00;99.90;;;;;;4874169;29;20143;-79
2024/01/27 09:44:12;;;;;;;29.75;13.35;;;4.00;99.90;;;;;;4896079;29;20491;-79
2024/01/27 09:46:41;;;;;;;21.52;13.50;;;;;;;;;;4876292;29;20051;-78
2024/01/27 09:49:09;;;;;;;32.80;12.55;;;4.30;99.90;;;;;;4874800;29;20220;-79
2024/01/27 09:51:35;;;;;;;21.17;12.20;;;;;;;;;;4881511;29;20493;-79
2024/01/27 09:54:00;;;;;;;23.52;11.60;;;4.30;99.90;;;;;;4898883;29;20053;-78
2024/01/27 09:56:26;;;;;;;30.33;12.93;;;4.40;99.90;;;;;;4903855;29;20059;-77
2024/01/27 09:58:55;;;;;;;22.95;12.05;;;;;;;;;;4901831;29;20053;-78
2024/01/27 10:01:24;;;;;;;22.75;11.18;;;4.70;99.90;;;;;;4915886;29;20062;-78
2024/01/27 10:03:49;;;;;;;22.85;12.07;;;4.70;99.90;;;;;;4919163;29;20059;-78
2024/01/27 10:06:15;;;;;;;22.83;11.05;;;4.70;99.90;;;;;;4900833;29;20056;-78
2024/01/27 10:08:42;;;;;;;25.60;11.18;;;4.80;99.90;;;;;;4901876;29;20154;-78
2024/01/27 10:11:09;;;;;;;23.33;11.23;;;4.80;99.90;;;;;;4906019;29;20043;-78
2024/01/27 10:13:36;;;;;;;24.38;11.15;;;4.90;99.90;;;;;;4916555;29;20288;-78
2024/01/27 10:16:06;;;;;;;21.02;11.32;;;5.00;99.90;;;;;;4917764;29;20415;-78
2024/01/27 10:18:32;;;;;;;26.50;10.88;;;5.10;99.90;;;;;;4899579;29;20044;-78
2024/01/27 10:20:59;;;;;;;25.95;12.98;;;5.10;99.90;;;;;;4915765;29;20187;-78
2024/01/27 10:23:24;;;;;;;29.17;13.13;;;5.20;99.90;;;;;;4916376;29;20040;-78
2024/01/27 10:25:51;;;;;;;23.83;11.77;;;5.20;99.90;;;;;;4884949;29;20067;-78
2024/01/27 10:28:17;;;;;;;22.50;11.95;;;5.30;99.90;;;;;;4901062;29;20069;-78
2024/01/27 10:30:43;;;;;;;23.13;11.45;;;5.40;99.90;;;;;;4884936;29;20056;-78
2024/01/27 10:33:16;;;;;;;19.95;11.13;;;5.50;99.90;;;;;;4917519;29;20051;-78
2024/01/27 10:35:45;;;;;;;23.23;11.50;;;5.50;99.90;;;;;;4882109;29;20451;-78
2024/01/27 10:38:10;;;;;;;22.33;11.25;;;5.60;99.90;;;;;;4918668;29;20048;-78
2024/01/27 10:40:37;;;;;;;27.20;11.30;;;5.70;99.90;;;;;;4916792;29;20063;-78
2024/01/27 10:43:03;;;;;;;23.40;10.57;;;;;;;;;;4881650;29;20040;-79
2024/01/27 10:45:40;;;;;;;23.23;10.73;;;5.80;99.90;;;;;;4899664;29;20139;-77
2024/01/27 10:48:07;;;;;;;23.15;10.85;;;5.90;99.90;;;;;;4916750;29;20059;-77
2024/01/27 10:50:38;;;;;;;24.83;10.30;;;6.00;99.90;;;;;;4909748;29;20044;-79
2024/01/27 10:53:05;;;;;;;25.05;10.25;;;6.00;99.90;;;;;;4917816;29;20554;-78
2024/01/27 10:55:35;;;;;;;22.63;11.13;;;6.10;99.90;;;;;;4887882;29;20126;-80
2024/01/27 10:58:02;;;;;;;27.80;9.85;;;6.10;99.90;;;;;;4900970;29;20503;-78
2024/01/27 11:00:28;;;;;;;19.10;9.25;;;6.20;99.90;;;;;;4885488;29;20139;-79
2024/01/27 11:03:01;;;;;;;17.17;9.20;;;6.20;99.90;;;;;;4897296;29;20049;-79
2024/01/27 11:05:31;;;;;;;21.05;10.23;;;6.30;99.90;;;;;;4894013;29;20048;-77
2024/01/27 11:07:59;;;;;;;23.15;10.48;;;6.30;99.90;;;;;;4883142;29;20092;-77
2024/01/27 11:10:26;;;;;;;17.33;8.80;;;6.40;99.90;;;;;;4915027;29;20495;-77
2024/01/27 11:12:54;;;;;;;19.50;9.15;;;;;;;;;;4900176;29;20529;-77
2024/01/27 11:15:21;;;;;;;18.40;9.65;;;6.50;99.90;;;;;;4914186;29;20052;-77
2024/01/27 11:17:46;;;;;;;18.50;8.77;;;6.60;99.90;;;;;;4885165;29;20398;-77
2024/01/27 11:20:13;;;;;;;23.55;9.13;;;6.60;99.90;;;;;;4897723;29;20059;-78
2024/01/27 11:22:40;;;;;;;22.92;9.57;;;6.70;99.90;;;;;;4919329;29;20119;-78
2024/01/27 11:25:12;;;;;;;21.83;9.60;;;6.70;99.90;;;;;;4912924;29;20541;-78
2024/01/27 11:27:39;;;;;;;23.80;10.07;;;6.80;99.90;;;;;;4897649;29;20071;-78
2024/01/27 11:30:06;;;;;;;22.00;10.40;;;6.80;99.90;;;;;;4908682;29;20040;-78
2024/01/27 11:32:32;;;;;;;16.70;8.50;;;6.90;99.90;;;;;;4913375;29;20051;-77
2024/01/27 11:35:02;;;;;;;23.38;8.55;;;7.00;99.90;;;;;;4912567;29;20055;-77
2024/01/27 11:37:30;;;;;;;16.98;7.32;;;7.00;99.90;;;;;;4895740;29;20036;-77
2024/01/27 11:40:09;;;;;;;19.35;8.15;;;7.10;99.90;;;;;;4917155;29;20040;-77
2024/01/27 11:42:35;;;;;;;23.13;9.32;;;7.10;99.90;;;;;;4917200;29;20144;-77
2024/01/27 11:45:01;;;;;;;18.15;7.82;;;7.20;99.90;;;;;;4896092;29;20131;-77
2024/01/27 11:47:27;;;;;;;19.55;7.82;;;7.20;99.90;;;;;;4912303;29;20048;-77
2024/01/27 11:49:55;;;;;;;20.73;8.65;;;7.30;99.90;;;;;;4895980;29;20048;-77
2024/01/27 11:52:21;;;;;;;24.17;8.45;;;7.30;99.90;;;;;;4897288;29;20088;-78
2024/01/27 11:54:57;;;;;;;19.42;8.00;;;7.40;99.90;;;;;;4899746;29;20131;-78
2024/01/27 11:57:23;;;;;;;18.02;7.30;;;7.50;99.90;;;;;;4913924;29;20088;-78
2024/01/27 11:59:50;;;;;;;16.42;6.57;;;;;;;;;;4900602;29;20052;-77
2024/01/27 12:02:17;;;;;;;17.35;7.55;;;7.70;99.90;;;;;;4895704;29;20040;-78
2024/01/27 12:04:43;;;;;;;19.65;6.97;;;7.70;99.90;;;;;;4898564;29;20372;-78
2024/01/27 12:07:09;;;;;;;16.67;5.78;;;7.70;99.90;;;;;;4897992;29;20051;-78
2024/01/27 12:09:37;;;;;;;19.23;5.82;;;7.80;99.90;;;;;;4898952;29;20044;-78
2024/01/27 12:12:08;;;;;;;18.55;6.15;;;7.80;99.90;;;;;;4909506;29;20582;-78
2024/01/27 12:14:46;;;;;;;20.27;6.32;;;7.90;99.90;;;;;;4915375;29;20040;-78
2024/01/27 12:17:12;;;;;;;18.77;5.90;;;7.90;99.90;;;;;;4916462;29;20048;-78
2024/01/27 12:19:38;;;;;;;17.98;6.35;;;8.20;99.90;;;;;;4914102;29;20506;-78
2024/01/27 12:22:04;;;;;;;13.40;5.18;;;7.90;99.90;;;;;;4897257;29;20040;-78
2024/01/27 12:24:33;;;;;;;15.98;5.90;;;7.90;99.90;;;;;;4914036;29;20554;-78
2024/01/27 12:26:59;;;;;;;12.55;5.63;;;8.00;99.90;;;;;;4896537;29;20178;-78
2024/01/27 12:29:25;;;;;;;18.38;5.22;;;8.10;99.90;;;;;;4890051;29;20041;-78
2024/01/27 12:31:51;;;;;;;16.08;5.90;;;8.10;99.90;;;;;;4897071;29;20184;-78
2024/01/27 12:34:19;;;;;;;19.58;5.72;;;8.10;99.90;;;;;;4897859;29;20048;-77
2024/01/27 12:36:44;;;;;;;22.88;5.57;;;8.10;99.90;;;;;;4915154;29;20055;-78
2024/01/27 12:39:10;;;;;;;17.38;5.20;;;8.30;99.90;;;;;;4915955;29;20102;-77
2024/01/27 12:41:36;;;;;;;14.77;5.57;;;8.20;99.90;;;;;;4922602;29;20032;-77
2024/01/27 12:44:02;;;;;;;20.20;5.28;;;8.30;99.90;;;;;;4899639;29;20095;-77
2024/01/27 12:46:29;;;;;;;17.42;4.70;;;8.20;99.90;;;;;;4925788;29;20047;-77
2024/01/27 12:48:54;;;;;;;13.90;5.00;;;8.30;99.90;;;;;;4925348;29;20042;-77
2024/01/27 12:51:20;;;;;;;15.50;4.70;;;;;;;;;;4907760;29;20480;-77
2024/01/27 12:53:47;;;;;;;15.90;4.88;;;8.20;99.90;;;;;;4895536;29;20040;-77
2024/01/27 12:56:14;;;;;;;15.48;5.22;;;8.20;99.90;;;;;;4910172;29;20506;-77
2024/01/27 12:58:41;;;;;;;17.42;4.97;;;8.30;99.90;;;;;;4912691;29;20056;-76
2024/01/27 13:01:07;;;;;;;16.25;5.25;;;8.30;99.90;;;;;;4924329;29;20044;-79